Time;durP1;ratioP1;P1;durP2;ratioP2;P2;SDS_P1;SDS_P2;PMS_P1;PMS_P2;Temp;Humidity;BMP_temperature;BMP_pressure;BME280_temperature;BME280_humidity;BME280_pressure;Samples;Min_cycle;Max_cycle;Signal;HPM_P1;HPM_P2
2022/06/15 00:02:23;;;;;;;2.43;1.93;;;;;;;;;;5038810;28;88354;-75
2022/06/15 00:04:54;;;;;;;4.97;1.90;;;;;;;;;;5043781;28;88426;-74
2022/06/15 00:07:23;;;;;;;2.10;1.50;;;;;;;;;;5043206;27;88500;-75
2022/06/15 00:09:53;;;;;;;3.27;1.83;;;;;;;;;;5038468;27;89936;-74
2022/06/15 00:12:25;;;;;;;2.03;1.43;;;;;;;;;;5042196;27;88412;-74
2022/06/15 00:15:00;;;;;;;3.77;1.43;;;;;;;;;;5023278;27;88610;-74
2022/06/15 00:17:36;;;;;;;2.77;1.57;;;;;;;;;;5022757;28;89579;-75
2022/06/15 00:20:08;;;;;;;2.27;1.10;;;;;;;;;;5039643;28;89266;-74
2022/06/15 00:22:39;;;;;;;2.37;1.37;;;;;;;;;;5041867;28;88397;-74
2022/06/15 00:25:11;;;;;;;2.30;1.03;;;;;;;;;;5032374;27;88549;-74
2022/06/15 00:27:41;;;;;;;3.33;1.63;;;;;;;;;;5043483;27;89207;-74
2022/06/15 00:30:16;;;;;;;3.27;1.37;;;;;;;;;;5042759;27;88878;-74
2022/06/15 00:32:47;;;;;;;3.50;1.13;;;;;;;;;;5042382;27;88219;-75
2022/06/15 00:35:17;;;;;;;0.87;0.87;;;;;;;;;;5023563;27;88726;-75
2022/06/15 00:37:55;;;;;;;0.87;0.83;;;;;;;;;;5027475;28;91734;-75
2022/06/15 00:40:33;;;;;;;4.80;1.33;;;;;;;;;;5040297;28;89134;-74
2022/06/15 00:43:02;;;;;;;2.27;1.30;;;;;;;;;;5043711;27;88319;-74
2022/06/15 00:45:32;;;;;;;2.20;1.40;;;;;;;;;;5043535;27;88615;-74
2022/06/15 00:48:16;;;;;;;1.03;1.00;;;;;;;;;;5039431;27;89526;-75
2022/06/15 00:53:37;;;;;;;1.30;0.97;;;;;;;;;;5042494;28;88427;-74
2022/06/15 00:58:52;;;;;;;5.73;1.10;;;;;;;;;;5040631;27;89877;-74
2022/06/15 01:01:38;;;;;;;1.50;0.90;;;;;;;;;;5042040;27;88982;-74
2022/06/15 01:04:12;;;;;;;0.80;0.80;;;;;;;;;;5042351;27;89503;-74
2022/06/15 01:06:51;;;;;;;1.53;1.10;;;;;;;;;;5024561;27;88646;-74
2022/06/15 01:09:23;;;;;;;1.80;1.07;;;;;;;;;;5022565;27;88800;-74
2022/06/15 01:12:00;;;;;;;0.87;0.87;;;;;;;;;;5023994;27;88958;-74
2022/06/15 01:14:47;;;;;;;1.50;0.80;;;;;;;;;;5022812;28;88436;-74
2022/06/15 01:17:20;;;;;;;0.87;0.80;;;;;;;;;;5028271;28;88736;-74
2022/06/15 01:20:01;;;;;;;1.48;1.00;;;;;;;;;;5039013;28;95388;-75
2022/06/15 01:22:37;;;;;;;2.20;1.37;;;;;;;;;;5030379;27;88540;-75
2022/06/15 01:25:14;;;;;;;2.27;1.60;;;;;;;;;;5042666;28;88866;-75
2022/06/15 01:27:50;;;;;;;1.10;1.00;;;;;;;;;;5029719;27;88732;-75
2022/06/15 01:30:34;;;;;;;1.00;1.00;;;;;;;;;;5031624;27;91546;-74
2022/06/15 01:33:36;;;;;;;3.87;0.93;;;;;;;;;;5032883;27;88607;-74
2022/06/15 01:36:06;;;;;;;2.57;0.93;;;;;;;;;;5029207;28;88564;-75
2022/06/15 01:38:54;;;;;;;1.30;1.20;;;;;;;;;;5043094;27;88509;-75
2022/06/15 01:41:28;;;;;;;1.80;1.03;;;;;;;;;;5040854;27;89453;-74
2022/06/15 01:44:11;;;;;;;1.00;0.90;;;;;;;;;;5022169;28;90355;-75
2022/06/15 01:49:26;;;;;;;2.20;0.90;;;;;;;;;;5027938;28;88563;-75
2022/06/15 01:52:11;;;;;;;2.50;0.93;;;;;;;;;;5029893;28;91716;-75
2022/06/15 01:54:48;;;;;;;1.27;0.97;;;;;;;;;;5042425;27;92230;-75
2022/06/15 01:57:21;;;;;;;0.73;0.73;;;;;;;;;;5042128;27;88500;-75
2022/06/15 01:59:58;;;;;;;2.40;1.13;;;;;;;;;;5038566;27;88662;-75
2022/06/15 02:02:36;;;;;;;2.40;0.97;;;;;;;;;;5031853;27;90056;-75
2022/06/15 02:05:08;;;;;;;1.00;1.00;;;;;;;;;;5027555;27;88425;-75
2022/06/15 02:10:31;;;;;;;1.17;1.07;;;;;;;;;;5039823;27;88357;-75
2022/06/15 02:13:11;;;;;;;1.37;0.97;;;;;;;;;;5039124;27;89827;-75
2022/06/15 02:15:53;;;;;;;0.80;0.80;;;;;;;;;;5039834;28;89005;-75
2022/06/15 02:18:35;;;;;;;0.87;0.77;;;;;;;;;;5037593;27;88385;-76
2022/06/15 02:21:14;;;;;;;2.60;1.23;;;;;;;;;;5017245;28;88751;-75
2022/06/15 02:23:44;;;;;;;1.00;0.90;;;;;;;;;;5025155;28;90021;-75
2022/06/15 02:26:19;;;;;;;1.37;0.90;;;;;;;;;;5033697;27;89398;-75
2022/06/15 02:28:51;;;;;;;1.97;0.80;;;;;;;;;;5041533;27;88353;-75
2022/06/15 02:31:22;;;;;;;0.77;0.77;;;;;;;;;;5041242;27;88623;-75
2022/06/15 02:33:54;;;;;;;1.80;1.00;;;;;;;;;;5039025;27;91528;-75
2022/06/15 02:36:44;;;;;;;2.60;0.60;;;;;;;;;;4955822;28;89023;-75
2022/06/15 02:39:26;;;;;;;3.40;1.30;;;;;;;;;;4962784;28;88560;-75
2022/06/15 02:42:26;;;;;;;2.87;1.07;;;;;;;;;;4973871;28;88764;-75
2022/06/15 02:45:01;;;;;;;1.43;0.93;;;;;;;;;;4978688;28;89465;-75
2022/06/15 02:47:32;;;;;;;2.20;0.80;;;;;;;;;;4979156;28;89910;-75
2022/06/15 02:50:11;;;;;;;1.10;1.00;;;;;;;;;;4958139;28;88585;-74
2022/06/15 02:52:44;;;;;;;1.13;0.70;;;;;;;;;;4958496;28;88708;-75
2022/06/15 02:55:15;;;;;;;1.10;1.00;;;;;;;;;;4957395;28;89709;-75
2022/06/15 02:57:48;;;;;;;0.97;0.80;;;;;;;;;;4955539;28;89504;-75
2022/06/15 03:00:21;;;;;;;0.60;0.60;;;;;;;;;;4939772;28;88526;-75
2022/06/15 03:02:50;;;;;;;1.47;0.90;;;;;;;;;;4949672;28;88604;-74
2022/06/15 03:05:22;;;;;;;2.33;0.70;;;;;;;;;;4958252;28;89567;-75
2022/06/15 03:10:48;;;;;;;0.97;0.80;;;;;;;;;;4963393;28;88798;-74
2022/06/15 03:13:21;;;;;;;1.00;1.00;;;;;;;;;;4978556;28;88402;-75
2022/06/15 03:15:58;;;;;;;1.23;1.07;;;;;;;;;;4978643;28;89552;-75
2022/06/15 03:18:31;;;;;;;1.00;0.90;;;;;;;;;;4963246;28;89246;-75
2022/06/15 03:21:06;;;;;;;0.90;0.90;;;;;;;;;;5007790;27;88872;-75
2022/06/15 03:23:53;;;;;;;2.10;1.37;;;26.20;41.60;;;;;;5056549;27;89008;-75
2022/06/15 03:26:26;;;;;;;2.37;1.70;;;26.20;42.20;;;;;;5046773;27;89456;-76
2022/06/15 03:29:00;;;;;;;1.60;1.50;;;26.20;42.30;;;;;;5041715;27;90071;-75
2022/06/15 03:31:32;;;;;;;4.60;2.33;;;26.20;42.30;;;;;;5023977;28;88402;-75
2022/06/15 03:34:00;;;;;;;2.73;1.77;;;26.20;42.30;;;;;;5034015;28;89644;-75
2022/06/15 03:36:30;;;;;;;3.10;1.80;;;26.20;42.90;;;;;;5029846;27;92158;-75
2022/06/15 03:39:07;;;;;;;3.13;1.70;;;26.20;42.40;;;;;;5023921;28;89461;-75
2022/06/15 03:41:36;;;;;;;3.63;2.10;;;;;;;;;;5024678;28;88557;-74
2022/06/15 03:44:05;;;;;;;3.97;1.93;;;;;;;;;;5026073;28;88447;-75
2022/06/15 03:46:43;;;;;;;2.60;1.53;;;;;;;;;;5024708;28;89855;-75
2022/06/15 03:49:17;;;;;;;2.27;1.63;;;;;;;;;;5023607;28;90071;-75
2022/06/15 03:51:51;;;;;;;2.33;1.60;;;;;;;;;;5037553;27;88364;-76
2022/06/15 03:57:12;;;;;;;2.53;1.77;;;;;;;;;;5043196;28;89495;-75
2022/06/15 03:59:45;;;;;;;1.53;1.43;;;;;;;;;;5044043;27;88692;-75
2022/06/15 04:02:16;;;;;;;1.40;1.20;;;;;;;;;;5041715;28;88598;-75
2022/06/15 04:04:47;;;;;;;1.97;1.13;;;;;;;;;;5044771;27;89166;-75
2022/06/15 04:10:09;;;;;;;1.43;1.20;;;;;;;;;;5041950;28;88768;-74
2022/06/15 04:12:42;;;;;;;1.00;0.90;;;;;;;;;;5042981;28;88291;-75
2022/06/15 04:15:25;;;;;;;2.00;1.20;;;;;;;;;;5014834;28;89895;-75
2022/06/15 04:17:56;;;;;;;4.07;1.27;;;;;;;;;;5002177;28;89583;-75
2022/06/15 04:20:36;;;;;;;2.97;1.37;;;;;;;;;;5003223;28;89114;-75
2022/06/15 04:23:09;;;;;;;3.17;1.23;;;;;;;;;;5013844;28;88600;-75
2022/06/15 04:25:43;;;;;;;3.83;1.23;;;;;;;;;;5000487;28;89768;-75
2022/06/15 04:28:18;;;;;;;1.87;1.27;;;;;;;;;;5007253;28;89869;-74
2022/06/15 04:30:55;;;;;;;2.33;1.30;;;;;;;;;;5012348;28;92593;-75
2022/06/15 04:33:35;;;;;;;1.87;1.60;;;;;;;;;;5014789;28;88925;-75
2022/06/15 04:36:17;;;;;;;2.90;1.50;;;;;;;;;;5015728;28;88793;-75
2022/06/15 04:38:52;;;;;;;3.77;1.77;;;;;;;;;;5017677;28;92376;-75
2022/06/15 04:41:28;;;;;;;3.40;1.43;;;;;;;;;;5015449;28;88457;-75
2022/06/15 04:44:02;;;;;;;4.57;1.70;;;;;;;;;;5009570;28;88816;-75
2022/06/15 04:46:33;;;;;;;2.40;1.30;;;;;;;;;;5020558;28;88610;-75
2022/06/15 04:51:47;;;;;;;2.10;1.53;;;;;;;;;;5019400;28;88687;-74
2022/06/15 04:54:32;;;;;;;3.60;1.47;;;;;;;;;;5041120;28;88347;-75
2022/06/15 04:57:05;;;;;;;3.73;1.40;;;;;;;;;;5051913;27;88454;-69
2022/06/15 04:59:37;;;;;;;1.90;1.10;;;;;;;;;;5041123;27;89235;-70
2022/06/15 05:02:15;;;;;;;3.13;1.20;;;;;;;;;;5037458;28;90085;-70
2022/06/15 05:04:46;;;;;;;2.73;1.40;;;;;;;;;;5041548;28;89724;-70
2022/06/15 05:07:17;;;;;;;1.67;1.37;;;;;;;;;;5040306;27;88665;-69
2022/06/15 05:09:51;;;;;;;3.37;1.97;;;;;;;;;;5041190;27;89504;-69
2022/06/15 05:12:26;;;;;;;1.23;1.13;;;;;;;;;;5041291;27;88857;-75
2022/06/15 05:17:47;;;;;;;2.67;1.07;;;;;;;;;;5037295;28;88648;-74
2022/06/15 05:20:19;;;;;;;1.47;0.93;;;;;;;;;;5040869;28;89585;-75
2022/06/15 05:22:55;;;;;;;2.83;1.40;;;;;;;;;;5038050;27;89998;-75
2022/06/15 05:25:38;;;;;;;1.83;1.37;;;;;;;;;;5038297;28;88387;-75
2022/06/15 05:28:23;;;;;;;1.03;0.93;;;;;;;;;;5040071;28;88439;-75
2022/06/15 05:30:58;;;;;;;1.67;1.10;;;;;;;;;;5041693;27;89564;-75
2022/06/15 05:33:27;;;;;;;2.27;1.27;;;;;;;;;;5038712;28;90007;-76
2022/06/15 05:36:06;;;;;;;0.80;0.80;;;;;;;;;;5028111;27;88293;-75
2022/06/15 05:41:36;;;;;;;4.33;1.07;;;;;;;;;;5042027;27;88605;-75
2022/06/15 05:44:16;;;;;;;1.03;0.93;;;;;;;;;;5040304;27;89432;-76
2022/06/15 05:46:44;;;;;;;1.77;1.03;;;;;;;;;;5029413;28;88457;-76
2022/06/15 05:49:19;;;;;;;0.97;0.77;;;;;;;;;;5026904;27;88503;-75
2022/06/15 05:51:52;;;;;;;3.17;0.93;;;;;;;;;;5020576;28;89944;-75
2022/06/15 05:54:24;;;;;;;2.03;0.80;;;;;;;;;;5020097;28;89040;-75
2022/06/15 05:56:57;;;;;;;3.80;1.10;;;;;;;;;;5022134;28;92522;-76
2022/06/15 05:59:33;;;;;;;1.03;0.80;;;;;;;;;;5021996;28;88534;-75
2022/06/15 06:05:18;;;;;;;1.03;0.80;;;;;;;;;;5036000;28;89461;-75
2022/06/15 06:07:54;;;;;;;2.43;0.63;;;;;;;;;;5028759;28;89048;-75
2022/06/15 06:10:30;;;;;;;0.70;0.70;;;;;;;;;;5035093;28;88556;-76
2022/06/15 06:13:04;;;;;;;0.77;0.70;;;;;;;;;;5020271;28;89712;-76
2022/06/15 06:15:35;;;;;;;2.80;0.70;;;;;;;;;;5019695;28;89847;-75
2022/06/15 06:23:59;;;;;;;1.57;0.83;;;;;;;;;;5039365;28;93212;-74
2022/06/15 06:26:28;;;;;;;1.43;1.00;;;;;;;;;;5040346;27;90016;-75
2022/06/15 06:29:00;;;;;;;0.40;0.40;;;;;;;;;;5036796;27;88951;-74
2022/06/15 06:31:30;;;;;;;0.70;0.70;;;;;;;;;;5040679;28;88408;-75
2022/06/15 06:34:01;;;;;;;1.50;0.87;;;;;;;;;;5035475;27;89739;-66
2022/06/15 06:36:37;;;;;;;1.23;0.70;;;;;;;;;;5040779;27;90234;-66
2022/06/15 06:39:11;;;;;;;0.70;0.70;;;;;;;;;;5034426;28;88557;-65
2022/06/15 06:41:50;;;;;;;0.80;0.80;;;;;;;;;;5020201;28;88486;-65
2022/06/15 06:47:29;;;;;;;1.07;0.80;;;;;;;;;;5048308;27;90077;-65
2022/06/15 06:49:59;;;;;;;1.23;1.00;;;;;;;;;;5037452;27;90013;-67
2022/06/15 06:52:33;;;;;;;1.03;0.93;;;;;;;;;;5055744;27;88489;-66
2022/06/15 06:55:10;;;;;;;0.60;0.60;;;;;;;;;;5037480;27;90734;-67
2022/06/15 06:57:44;;;;;;;2.60;0.90;;;;;;;;;;5038201;28;92461;-68
2022/06/15 07:00:13;;;;;;;1.17;0.80;;;;;;;;;;5040203;27;88738;-66
2022/06/15 07:02:44;;;;;;;4.43;1.13;;;;;;;;;;5037483;27;88578;-67
2022/06/15 07:05:13;;;;;;;1.03;0.90;;;;;;;;;;5038583;27;90750;-67
2022/06/15 07:07:42;;;;;;;3.03;0.97;;;;;;;;;;5042079;27;88808;-67
2022/06/15 07:10:14;;;;;;;1.23;0.87;;;;;;;;;;5036437;28;88582;-67
2022/06/15 07:12:46;;;;;;;1.00;0.90;;;;;;;;;;5039975;27;88134;-67
2022/06/15 07:15:17;;;;;;;0.57;0.53;;;;;;;;;;5039309;27;90520;-67
2022/06/15 07:17:51;;;;;;;2.53;0.87;;;;;;;;;;5034895;27;89353;-67
2022/06/15 07:20:22;;;;;;;0.87;0.70;;;;;;;;;;5026697;28;88441;-66
2022/06/15 07:22:51;;;;;;;3.13;0.80;;;;;;;;;;5040110;27;88652;-66
2022/06/15 07:25:30;;;;;;;2.13;0.77;;;;;;;;;;5039896;27;88208;-67
2022/06/15 07:28:02;;;;;;;3.90;1.10;;;;;;;;;;5033475;27;89898;-67
2022/06/15 07:30:38;;;;;;;0.60;0.60;;;;;;;;;;5019323;28;88401;-67
2022/06/15 07:33:17;;;;;;;0.80;0.57;;;;;;;;;;5027512;28;88342;-67
2022/06/15 07:35:45;;;;;;;1.10;0.80;;;;;;;;;;5040017;28;89317;-67
2022/06/15 07:38:21;;;;;;;0.47;0.47;;;;;;;;;;5030542;27;90005;-67
2022/06/15 07:41:01;;;;;;;3.03;1.17;;;;;;;;;;5032392;27;89897;-69
2022/06/15 07:43:30;;;;;;;1.80;0.70;;;;;;;;;;5038954;27;88271;-67
2022/06/15 07:46:00;;;;;;;2.37;0.70;;;;;;;;;;5039062;27;90973;-67
2022/06/15 07:51:28;;;;;;;2.40;0.80;;;;;;;;;;5036986;27;88551;-67
2022/06/15 07:54:01;;;;;;;1.20;0.77;;;;;;;;;;5038592;27;88619;-67
2022/06/15 07:56:36;;;;;;;0.67;0.67;;;;;;;;;;5036756;27;89591;-66
2022/06/15 07:59:12;;;;;;;0.87;0.87;;;;;;;;;;5031932;27;89002;-67
2022/06/15 08:01:48;;;;;;;0.90;0.73;;;;;;;;;;5019874;28;89038;-67
2022/06/15 08:04:25;;;;;;;1.23;0.90;;;;;;;;;;5038183;27;88630;-67
2022/06/15 08:09:45;;;;;;;2.53;1.00;;;;;;;;;;5032539;27;90323;-67
2022/06/15 08:12:15;;;;;;;0.77;0.77;;;;;;;;;;5021926;28;88976;-67
2022/06/15 08:14:48;;;;;;;0.60;0.60;;;;;;;;;;5029371;27;88613;-69
2022/06/15 08:17:31;;;;;;;2.00;0.87;;;;;;;;;;5033896;28;89873;-69
2022/06/15 08:20:10;;;;;;;2.87;0.70;;;;;;;;;;5005511;28;89583;-68
2022/06/15 08:22:41;;;;;;;0.60;0.60;;;;;;;;;;5028823;27;88408;-67
2022/06/15 08:25:13;;;;;;;0.40;0.40;;;;;;;;;;5042667;27;88600;-67
2022/06/15 08:27:44;;;;;;;1.60;1.03;;;;;;;;;;5045831;27;90882;-68
2022/06/15 08:30:18;;;;;;;4.33;0.73;;;;;;;;;;5028104;27;89467;-67
2022/06/15 08:32:49;;;;;;;0.90;0.50;;;;;;;;;;5020775;28;89074;-67
2022/06/15 08:35:25;;;;;;;0.80;0.57;;;;;;;;;;5037578;27;88619;-71
2022/06/15 08:37:57;;;;;;;1.40;0.70;;;;;;;;;;5036084;28;90606;-70
2022/06/15 08:40:27;;;;;;;0.63;0.63;;;;;;;;;;5041582;27;90200;-70
2022/06/15 08:42:58;;;;;;;1.43;0.70;;;;;;;;;;5041109;27;89044;-70
2022/06/15 08:45:30;;;;;;;0.63;0.63;;;;;;;;;;5039663;27;88461;-71
2022/06/15 08:48:14;;;;;;;0.70;0.60;;;;;;;;;;5041193;27;90934;-66
2022/06/15 08:51:02;;;;;;;3.07;0.83;;;;;;;;;;4984138;28;88732;-66
2022/06/15 08:53:47;;;;;;;1.23;0.80;;;;;;;;;;4995245;28;89490;-67
2022/06/15 08:56:16;;;;;;;4.53;0.80;;;;;;;;;;4997380;28;88631;-68
2022/06/15 08:58:46;;;;;;;1.03;0.93;;;;;;;;;;5002648;28;88556;-67
2022/06/15 09:01:26;;;;;;;1.80;0.93;;;;;;;;;;5000047;28;92066;-67
2022/06/15 09:03:56;;;;;;;1.13;0.77;;;;;;;;;;4999547;28;89039;-67
2022/06/15 09:06:30;;;;;;;4.30;0.63;;;;;;;;;;4999925;28;88529;-67
2022/06/15 09:09:12;;;;;;;0.73;0.73;;;;;;;;;;4987282;28;92903;-67
2022/06/15 09:11:49;;;;;;;1.57;0.70;;;;;;;;;;4999208;28;92022;-67
2022/06/15 09:14:23;;;;;;;1.47;0.87;;;;;;;;;;4999402;28;88760;-67
2022/06/15 09:16:57;;;;;;;4.33;0.60;;;;;;;;;;4999026;28;88582;-67
2022/06/15 09:19:29;;;;;;;2.90;0.60;;;;;;;;;;4995513;28;90740;-68
2022/06/15 09:22:02;;;;;;;1.47;0.87;;;;;;;;;;4983198;28;88535;-66
2022/06/15 09:24:32;;;;;;;2.23;0.60;;;;;;;;;;4987054;28;90710;-69
2022/06/15 09:27:09;;;;;;;1.03;0.70;;;;;;;;;;4998098;28;89225;-70
2022/06/15 09:29:41;;;;;;;1.17;1.07;;;;;;;;;;5029388;28;89590;-70
2022/06/15 09:32:14;;;;;;;0.90;0.73;;;;;;;;;;5041187;27;89050;-73
2022/06/15 09:34:43;;;;;;;1.33;0.80;;;;;;;;;;5041583;27;88249;-69
2022/06/15 09:37:20;;;;;;;1.07;0.97;;;;;;;;;;5041529;27;88624;-69
2022/06/15 09:39:51;;;;;;;0.63;0.60;;;;;;;;;;5023040;27;88268;-69
2022/06/15 09:42:29;;;;;;;3.97;1.13;;;;;;;;;;5021422;28;89937;-69
2022/06/15 09:45:05;;;;;;;3.03;0.67;;;;;;;;;;5036280;27;88629;-69
2022/06/15 09:47:38;;;;;;;2.73;0.60;;;;;;;;;;5040805;27;88539;-69
2022/06/15 09:50:20;;;;;;;1.03;0.80;;;;;;;;;;5021335;28;90008;-70
2022/06/15 09:52:55;;;;;;;0.90;0.90;;;;;;;;;;5019961;28;88971;-69
2022/06/15 09:55:31;;;;;;;1.57;0.90;;;;;;;;;;5021075;28;88845;-69
2022/06/15 09:58:00;;;;;;;1.03;0.80;;;;;;;;;;5020956;28;88681;-71
2022/06/15 10:00:37;;;;;;;0.90;0.90;;;;;;;;;;5020006;28;92480;-69
2022/06/15 10:03:11;;;;;;;1.53;0.77;;;;;;;;;;5020643;28;88976;-69
2022/06/15 10:05:42;;;;;;;3.33;1.20;;;;;;;;;;5020892;28;88857;-69
2022/06/15 10:08:17;;;;;;;4.43;0.73;;;;;;;;;;5026200;28;88523;-69
2022/06/15 10:10:54;;;;;;;4.73;0.80;;;;;;;;;;5020848;28;91057;-69
2022/06/15 10:13:30;;;;;;;3.30;0.90;;;;;;;;;;5020685;28;89456;-69
2022/06/15 10:16:05;;;;;;;4.43;0.80;;;;;;;;;;5020502;27;89793;-69
2022/06/15 10:18:38;;;;;;;1.17;0.80;;;;;;;;;;5031725;27;88570;-69
2022/06/15 10:21:10;;;;;;;0.73;0.73;;;;;;;;;;5057115;27;90032;-69
2022/06/15 10:23:56;;;;;;;0.93;0.70;;;;;;;;;;5060980;27;89385;-70
2022/06/15 10:26:28;;;;;;;2.37;0.80;;;;;;;;;;5060590;27;88739;-70
2022/06/15 10:28:58;;;;;;;1.13;0.70;;;;;;;;;;5044619;27;88491;-69
2022/06/15 10:31:32;;;;;;;0.80;0.60;;;;;;;;;;5040308;28;90227;-69
2022/06/15 10:34:14;;;;;;;1.70;0.70;;;;;;;;;;5040610;27;89409;-70
2022/06/15 10:36:42;;;;;;;0.70;0.70;;;;;;;;;;5039321;28;88935;-69
2022/06/15 10:39:14;;;;;;;0.70;0.70;;;;;;;;;;5024316;27;88619;-69
2022/06/15 10:42:16;;;;;;;1.00;0.90;;;;;;;;;;5020378;28;90525;-70
2022/06/15 10:44:50;;;;;;;2.03;1.03;;;;;;;;;;5020334;28;90339;-70
2022/06/15 10:47:19;;;;;;;3.13;0.97;;;;;;;;;;5020759;28;88854;-70
2022/06/15 10:49:50;;;;;;;0.80;0.80;;;;;;;;;;5020540;28;88471;-70
2022/06/15 10:52:34;;;;;;;1.77;0.77;;;;;;;;;;5018622;28;89720;-69
2022/06/15 11:04:14;;;;;;;1.33;0.80;;;;;;;;;;5034360;27;88575;-69
2022/06/15 11:06:47;;;;;;;1.80;0.80;;;;;;;;;;5038494;27;90369;-69
2022/06/15 11:09:24;;;;;;;2.07;0.90;;;;;;;;;;5037365;27;90135;-69
2022/06/15 11:11:52;;;;;;;1.87;0.90;;;;;;;;;;5039725;27;88663;-69
2022/06/15 11:14:45;;;;;;;1.43;0.70;;;;;;;;;;5039974;27;90787;-70
2022/06/15 11:20:09;;;;;;;0.80;0.80;;;;;;;;;;5040149;27;88535;-69
2022/06/15 11:22:40;;;;;;;1.17;0.83;;;;;;;;;;5040405;27;88142;-69
2022/06/15 11:25:18;;;;;;;0.73;0.60;;;;;;;;;;5039948;27;90862;-69
2022/06/15 11:27:49;;;;;;;0.83;0.77;;;;;;;;;;5028495;27;88418;-69
2022/06/15 11:30:22;;;;;;;0.77;0.77;;;;;;;;;;5019219;28;88894;-73
2022/06/15 11:32:52;;;;;;;0.83;0.60;;;;;;;;;;5019965;28;88363;-69
2022/06/15 11:35:24;;;;;;;1.37;1.00;;;;;;;;;;5019778;28;89522;-70
2022/06/15 11:37:59;;;;;;;2.20;0.73;;;;;;;;;;5018803;27;89200;-70
2022/06/15 11:40:31;;;;;;;2.07;0.80;;;;;;;;;;5038071;27;88935;-70
2022/06/15 11:42:59;;;;;;;1.60;0.93;;;;;;;;;;5043259;27;88477;-69
2022/06/15 11:45:33;;;;;;;2.20;0.90;;;;;;;;;;5043039;28;93391;-69
2022/06/15 11:48:06;;;;;;;1.13;0.80;;;;;;;;;;5027973;28;89032;-69
2022/06/15 11:50:42;;;;;;;0.80;0.60;;;;;;;;;;5022739;28;88675;-69
2022/06/15 11:53:16;;;;;;;0.73;0.70;;;;;;;;;;5020986;28;88669;-70
2022/06/15 11:55:48;;;;;;;2.57;0.87;;;;;;;;;;5032099;28;89037;-69
2022/06/15 11:58:22;;;;;;;3.77;1.00;;;;;;;;;;5042748;28;90340;-70
2022/06/15 12:00:56;;;;;;;0.90;0.67;;;;;;;;;;5043299;27;88640;-69
2022/06/15 12:03:31;;;;;;;1.37;0.80;;;;;;;;;;5042989;27;88486;-70
2022/06/15 12:06:01;;;;;;;2.30;0.83;;;;;;;;;;5030684;27;89676;-70
2022/06/15 12:08:34;;;;;;;1.13;0.93;;;;;;;;;;5022920;28;89500;-70
2022/06/15 12:12:37;;;;;;;0.97;0.67;;;;;;;;;;5022002;28;88593;-70
2022/06/15 12:14:06;;;;;;;2.87;0.90;;;;;;;;;;5029197;27;88623;-70
2022/06/15 12:16:45;;;;;;;1.77;0.90;;;;;;;;;;5042134;28;89331;-69
2022/06/15 12:19:18;;;;;;;2.13;1.13;;;;;;;;;;5042940;27;91912;-69
2022/06/15 12:22:02;;;;;;;2.00;0.87;;;;;;;;;;5041874;27;88934;-70
2022/06/15 12:24:31;;;;;;;1.10;0.90;;;;;;;;;;5041219;27;88911;-70
2022/06/15 12:27:04;;;;;;;1.53;0.90;;;;;;;;;;5029415;27;88427;-70
2022/06/15 12:29:42;;;;;;;1.70;1.23;;;;;;;;;;5042706;28;91720;-70
2022/06/15 12:32:37;;;;;;;1.00;0.90;;;;;;;;;;5042221;27;88472;-69
2022/06/15 12:35:25;;;;;;;0.60;0.60;;;;;;;;;;5021640;28;90487;-69
2022/06/15 12:38:07;;;;;;;2.67;0.93;;;;;;;;;;5021693;28;90552;-70
2022/06/15 12:40:39;;;;;;;2.70;0.87;;;;;;;;;;5021506;28;90529;-70
2022/06/15 12:43:16;;;;;;;1.53;0.73;;;;;;;;;;5031690;27;88395;-71
2022/06/15 12:45:56;;;;;;;2.63;0.87;;;;;;;;;;5022535;28;88274;-70
2022/06/15 12:49:00;;;;;;;0.97;0.97;;;;;;;;;;5019791;28;89289;-70
2022/06/15 12:51:39;;;;;;;1.90;0.80;;;;;;;;;;5021203;28;90592;-69
2022/06/15 12:54:12;;;;;;;0.97;0.63;;;;;;;;;;5028941;28;88575;-70
2022/06/15 12:56:49;;;;;;;2.57;1.10;;;;;;;;;;5028300;27;88323;-69
2022/06/15 12:59:21;;;;;;;1.13;1.03;;;;;;;;;;5022020;28;89934;-70
2022/06/15 13:01:51;;;;;;;1.07;0.70;;;;;;;;;;5041425;27;89027;-69
2022/06/15 13:04:26;;;;;;;3.57;0.80;;;;;;;;;;5033912;27;88779;-70
2022/06/15 13:07:26;;;;;;;0.77;0.77;;;;;;;;;;5021030;28;88614;-69
2022/06/15 13:10:37;;;;;;;1.00;0.70;;;;;;;;;;5013441;28;89292;-70
2022/06/15 13:13:06;;;;;;;1.77;0.70;;;;;;;;;;5023026;27;89500;-69
2022/06/15 13:15:42;;;;;;;0.80;0.60;;;;;;;;;;5042818;27;90490;-69
2022/06/15 13:18:12;;;;;;;1.50;0.70;;;;;;;;;;5061734;27;88478;-70
2022/06/15 13:21:01;;;;;;;1.00;0.90;;;;;;;;;;5060383;27;89556;-70
2022/06/15 13:23:32;;;;;;;0.73;0.63;;;;;;;;;;5057888;27;93282;-70
2022/06/15 13:26:20;;;;;;;2.97;0.70;;;;;;;;;;5020895;28;88519;-69
2022/06/15 13:29:19;;;;;;;1.03;0.77;;;;;;;;;;5021756;28;88590;-70
2022/06/15 13:34:45;;;;;;;2.73;1.00;;;;;;;;;;5031004;28;90578;-70
2022/06/15 13:37:33;;;;;;;2.67;0.70;;;;;;;;;;5041049;27;88193;-69
2022/06/15 13:40:03;;;;;;;1.30;0.93;;;;;;;;;;5040900;27;88691;-69
2022/06/15 13:42:41;;;;;;;1.37;0.97;;;;;;;;;;5041212;28;93671;-69
2022/06/15 13:45:39;;;;;;;0.70;0.60;;;;;;;;;;5040547;27;89524;-69
2022/06/15 13:48:28;;;;;;;1.13;0.60;;;;;;;;;;5040763;27;88289;-69
2022/06/15 13:50:57;;;;;;;1.80;0.80;;;;;;;;;;5041447;28;88128;-70
2022/06/15 13:53:27;;;;;;;1.63;0.70;;;;;;;;;;5040909;28;88425;-70
2022/06/15 13:56:03;;;;;;;4.43;0.70;;;;;;;;;;5041020;28;90239;-70
2022/06/15 13:58:43;;;;;;;4.57;0.77;;;;;;;;;;5041035;27;88232;-69
2022/06/15 14:01:21;;;;;;;0.83;0.73;;;;;;;;;;5041320;28;88430;-69
2022/06/15 14:04:10;;;;;;;2.73;1.20;;;;;;;;;;5039695;27;90804;-69
2022/06/15 14:06:43;;;;;;;3.50;2.03;;;;;;;;;;5019553;27;92317;-71
2022/06/15 14:09:19;;;;;;;3.43;2.30;;;;;;;;;;5039560;27;89772;-70
2022/06/15 14:12:03;;;;;;;2.30;1.50;;;;;;;;;;5040477;28;88477;-70
2022/06/15 14:14:39;;;;;;;2.40;1.20;;;;;;;;;;5026333;28;92058;-69
2022/06/15 14:17:24;;;;;;;2.00;1.17;;;;;;;;;;5020349;28;89972;-70
2022/06/15 14:19:57;;;;;;;3.77;1.43;;;;;;;;;;5020380;28;88316;-70
2022/06/15 14:22:27;;;;;;;4.27;1.10;;;;;;;;;;5020124;28;88516;-70
2022/06/15 14:25:03;;;;;;;2.10;0.73;;;;;;;;;;5020847;28;89605;-70
2022/06/15 14:27:37;;;;;;;2.33;0.70;;;;;;;;;;5020426;28;90086;-70
2022/06/15 14:30:10;;;;;;;2.97;1.13;;;;;;;;;;5019747;28;91049;-70
2022/06/15 14:32:41;;;;;;;0.90;0.60;;;;;;;;;;5019847;28;88585;-70
2022/06/15 14:35:21;;;;;;;0.53;0.53;;;;;;;;;;5020431;28;90783;-70
2022/06/15 14:37:50;;;;;;;3.13;0.70;;;;;;;;;;5020185;28;88475;-70
2022/06/15 14:40:27;;;;;;;0.93;0.83;;;;;;;;;;5029237;28;89968;-70
2022/06/15 14:42:56;;;;;;;0.87;0.77;;;;;;;;;;5039449;27;89172;-70
2022/06/15 14:45:29;;;;;;;3.73;0.83;;;;;;;;;;5019950;28;91753;-70
2022/06/15 14:48:10;;;;;;;1.83;0.87;;;;;;;;;;5019887;28;93160;-70
2022/06/15 14:50:43;;;;;;;0.80;0.80;;;;;;;;;;5019971;28;88944;-69
2022/06/15 14:53:22;;;;;;;3.70;1.00;;;;;;;;;;5036443;27;88671;-70
2022/06/15 14:55:54;;;;;;;1.00;0.90;;;;;;;;;;5039741;27;89255;-70
2022/06/15 14:58:30;;;;;;;1.37;0.77;;;;;;;;;;5040051;27;91932;-70
2022/06/15 15:01:15;;;;;;;1.60;0.70;;;;;;;;;;5039889;28;88396;-70
2022/06/15 15:03:51;;;;;;;3.60;0.83;;;;;;;;;;5029646;27;88607;-70
2022/06/15 15:06:21;;;;;;;1.70;0.70;;;;;;;;;;5019558;28;92286;-70
2022/06/15 15:08:50;;;;;;;2.03;0.57;;;;;;;;;;5019940;28;90113;-77
2022/06/15 15:11:29;;;;;;;1.17;0.90;;;;;;;;;;5019682;27;88885;-76
2022/06/15 15:14:03;;;;;;;0.83;0.83;;;;;;;;;;5021352;28;88345;-77
2022/06/15 15:16:35;;;;;;;1.17;1.10;;;;;;;;;;5020668;28;90571;-77
2022/06/15 15:19:05;;;;;;;3.90;0.80;;;;;;;;;;5023324;28;89494;-77
2022/06/15 15:21:40;;;;;;;1.30;1.00;;;;;;;;;;5023694;28;89040;-78
2022/06/15 15:24:29;;;;;;;0.57;0.57;;;;;;;;;;5040096;28;88531;-77
2022/06/15 15:27:02;;;;;;;0.90;0.80;;;;;;;;;;5043391;27;88576;-76
2022/06/15 15:35:50;;;;;;;0.70;0.70;;;;;;;;;;5023731;28;88519;-76
2022/06/15 15:38:34;;;;;;;1.60;0.83;;;;;;;;;;5022935;28;89951;-76
2022/06/15 15:41:04;;;;;;;1.10;0.83;;;;;;;;;;5038365;28;88967;-77
2022/06/15 15:43:34;;;;;;;1.70;0.80;;;;;;;;;;5030680;27;88576;-76
2022/06/15 15:46:07;;;;;;;3.03;0.87;;;;;;;;;;5023807;28;88427;-76
2022/06/15 15:48:38;;;;;;;2.43;1.17;;;;;;;;;;5023112;28;90017;-76
2022/06/15 15:51:08;;;;;;;0.70;0.70;;;;;;;;;;5021406;28;88792;-77
2022/06/15 15:53:37;;;;;;;1.83;0.80;;;;;;;;;;5023526;27;88400;-76
2022/06/15 15:56:08;;;;;;;0.70;0.63;;;;;;;;;;5022492;28;88665;-76
2022/06/15 15:58:36;;;;;;;0.87;0.60;;;;;;;;;;5026032;27;89800;-77
2022/06/15 16:01:05;;;;;;;1.03;0.93;;;;;;;;;;5042052;28;90067;-76
2022/06/15 16:03:35;;;;;;;1.73;1.00;;;;;;;;;;5042235;27;88404;-75
2022/06/15 16:06:07;;;;;;;0.50;0.50;;;;;;;;;;5042777;27;88426;-76
2022/06/15 16:08:36;;;;;;;0.90;0.90;;;;;;;;;;5042155;28;92971;-76
2022/06/15 16:11:06;;;;;;;1.93;0.90;;;;;;;;;;5042412;28;91988;-76
2022/06/15 16:13:36;;;;;;;1.33;0.80;;;;;;;;;;5028177;28;88396;-74
2022/06/15 16:16:19;;;;;;;1.40;0.80;;;;;;;;;;5021226;28;88498;-76
2022/06/15 16:18:53;;;;;;;1.87;0.70;;;;;;;;;;5051239;27;91125;-76
2022/06/15 16:21:23;;;;;;;2.20;1.10;;;;;;;;;;5051773;27;89446;-75
2022/06/15 16:23:56;;;;;;;1.47;0.70;;;;;;;;;;5042583;27;89733;-76
2022/06/15 16:26:26;;;;;;;4.77;1.00;;;;;;;;;;5021800;27;88641;-76
2022/06/15 16:28:55;;;;;;;0.87;0.80;;;;;;;;;;5041646;27;89786;-76
2022/06/15 16:31:24;;;;;;;1.27;0.80;;;;;;;;;;5040382;27;91887;-76
2022/06/15 16:33:55;;;;;;;1.30;1.00;;;;;;;;;;5041855;27;89569;-76
2022/06/15 16:36:30;;;;;;;2.60;1.00;;;;;;;;;;5042803;27;88302;-76